Time;durP1;ratioP1;P1;durP2;ratioP2;P2;SDS_P1;SDS_P2;PMS_P1;PMS_P2;Temp;Humidity;BMP_temperature;BMP_pressure;BME280_temperature;BME280_humidity;BME280_pressure;Samples;Min_cycle;Max_cycle;Signal;HPM_P1;HPM_P2
2023/12/10 00:00:30;;;;;;;13.88;12.50;;;;;;;;;;4925389;29;20560;-75
2023/12/10 00:02:55;;;;;;;13.73;12.40;;;;;;;;;;4942118;28;20090;-72
2023/12/10 00:05:21;;;;;;;16.27;13.48;;;;;;;;;;4943636;29;20749;-75
2023/12/10 00:07:47;;;;;;;19.48;12.85;;;;;;;;;;4939505;29;20549;-75
2023/12/10 00:10:12;;;;;;;13.95;12.35;;;;;;;;;;4943691;29;20565;-72
2023/12/10 00:12:39;;;;;;;19.98;12.27;;;;;;;;;;4943016;28;20373;-74
2023/12/10 00:15:05;;;;;;;14.90;12.48;;;;;;;;;;4943331;28;20043;-73
2023/12/10 00:17:30;;;;;;;18.73;12.88;;;;;;;;;;4944642;28;20045;-75
2023/12/10 00:19:56;;;;;;;16.38;12.18;;;;;;;;;;4941619;29;20531;-71
2023/12/10 00:22:22;;;;;;;21.20;13.02;;;;;;;;;;4927674;28;20058;-73
2023/12/10 00:24:48;;;;;;;14.52;12.68;;;;;;;;;;4937356;28;20051;-74
2023/12/10 00:27:13;;;;;;;19.25;12.68;;;;;;;;;;4943560;29;20043;-75
2023/12/10 00:29:39;;;;;;;20.85;12.20;;;;;;;;;;4941631;29;20113;-73
2023/12/10 00:32:04;;;;;;;14.20;12.85;;;;;;;;;;4939169;28;22110;-74
2023/12/10 00:34:30;;;;;;;20.05;12.82;;;;;;;;;;4925776;29;20050;-74
2023/12/10 00:36:56;;;;;;;14.27;11.63;;;;;;;;;;4942071;29;20163;-73
2023/12/10 00:39:21;;;;;;;17.98;12.57;;;;;;;;;;4942315;29;20035;-72
2023/12/10 00:41:47;;;;;;;13.80;12.05;;;;;;;;;;4939673;29;20109;-74
2023/12/10 00:44:13;;;;;;;20.90;12.60;;;;;;;;;;4942376;28;20429;-72
2023/12/10 00:46:38;;;;;;;24.60;13.48;;;;;;;;;;4941942;29;20039;-74
2023/12/10 00:49:04;;;;;;;17.27;12.20;;;;;;;;;;4939264;28;20043;-72
2023/12/10 00:51:30;;;;;;;23.70;13.43;;;;;;;;;;4940954;29;20057;-73
2023/12/10 00:53:55;;;;;;;13.30;12.20;;;;;;;;;;4941053;28;20107;-72
2023/12/10 00:56:21;;;;;;;15.95;12.38;;;;;;;;;;4942625;29;20039;-74
2023/12/10 00:58:46;;;;;;;13.52;11.88;;;;;;;;;;4934480;29;20118;-74
2023/12/10 01:01:12;;;;;;;13.95;12.57;;;;;;;;;;4942316;29;20043;-71
2023/12/10 01:03:38;;;;;;;27.23;12.90;;;;;;;;;;4941219;28;20085;-73
2023/12/10 01:06:04;;;;;;;14.55;11.68;;;;;;;;;;4941221;28;20039;-74
2023/12/10 01:08:32;;;;;;;19.42;12.25;;;;;;;;;;4939529;28;20124;-73
2023/12/10 01:10:58;;;;;;;15.75;12.40;;;;;;;;;;4940993;29;20046;-71
2023/12/10 01:13:25;;;;;;;23.70;12.23;;;;;;;;;;4941843;29;20035;-72
2023/12/10 01:15:55;;;;;;;16.13;12.30;;;;;;;;;;4946367;29;20035;-73
2023/12/10 01:18:21;;;;;;;20.40;13.23;;;;;;;;;;4927366;29;20047;-75
2023/12/10 01:20:47;;;;;;;16.65;11.73;;;;;;;;;;4941648;28;21323;-73
2023/12/10 01:23:14;;;;;;;20.88;12.15;;;;;;;;;;4941457;28;20023;-73
2023/12/10 01:25:40;;;;;;;19.13;12.55;;;;;;;;;;4939343;29;20035;-72
2023/12/10 01:28:07;;;;;;;18.88;12.88;;;;;;;;;;4939660;29;20039;-73
2023/12/10 01:30:33;;;;;;;18.13;12.65;;;;;;;;;;4939620;29;20039;-74
2023/12/10 01:32:59;;;;;;;17.00;12.20;;;;;;;;;;4921686;29;20046;-74
2023/12/10 01:35:25;;;;;;;21.95;12.15;;;;;;;;;;4940881;28;20398;-71
2023/12/10 01:37:51;;;;;;;19.75;11.85;;;;;;;;;;4939173;29;20031;-73
2023/12/10 01:40:16;;;;;;;19.35;11.93;;;;;;;;;;4940232;29;20089;-72
2023/12/10 01:42:44;;;;;;;18.30;12.13;;;;;;;;;;4939396;28;20076;-74
2023/12/10 01:45:10;;;;;;;17.73;11.77;;;;;;;;;;4940055;29;20039;-73
2023/12/10 01:47:40;;;;;;;23.42;12.65;;;;;;;;;;4940467;29;20042;-73
2023/12/10 01:50:15;;;;;;;17.85;12.15;;;;;;;;;;4937696;29;20470;-74
2023/12/10 01:52:42;;;;;;;22.80;12.00;;;;;;;;;;4939876;28;20039;-71
2023/12/10 01:55:09;;;;;;;25.85;12.35;;;;;;;;;;4937285;29;20063;-73
2023/12/10 01:57:36;;;;;;;25.33;13.10;;;;;;;;;;4938192;29;20042;-73
2023/12/10 02:00:06;;;;;;;22.50;12.05;;;;;;;;;;4939622;29;20094;-74
2023/12/10 02:02:39;;;;;;;15.10;12.98;;;;;;;;;;4940002;28;20043;-74
2023/12/10 02:05:06;;;;;;;14.57;11.90;;;;;;;;;;4926158;29;20097;-72
2023/12/10 02:07:32;;;;;;;20.30;12.32;;;;;;;;;;4935983;29;20046;-73
2023/12/10 02:09:58;;;;;;;28.98;12.38;;;;;;;;;;4939615;29;20046;-73
2023/12/10 02:12:24;;;;;;;35.88;13.07;;;;;;;;;;4935771;29;20094;-74
2023/12/10 02:14:50;;;;;;;21.70;13.02;;;;;;;;;;4938245;29;20058;-72
2023/12/10 02:17:15;;;;;;;20.17;12.13;;;;;;;;;;4941104;29;20049;-73
2023/12/10 02:19:41;;;;;;;23.35;12.70;;;;;;;;;;4940758;28;20043;-73
2023/12/10 02:22:11;;;;;;;19.60;12.65;;;;;;;;;;4939428;29;20482;-74
2023/12/10 02:24:49;;;;;;;23.65;12.90;;;;;;;;;;4934673;28;20043;-73
2023/12/10 02:27:15;;;;;;;21.98;12.40;;;;;;;;;;4937143;28;20047;-73
2023/12/10 02:29:41;;;;;;;19.75;11.38;;;;;;;;;;4938242;29;20043;-71
2023/12/10 02:32:07;;;;;;;23.08;11.80;;;;;;;;;;4935471;29;20031;-73
2023/12/10 02:34:33;;;;;;;22.65;11.80;;;;;;;;;;4935566;28;20071;-73
2023/12/10 02:36:58;;;;;;;12.65;10.90;;;;;;;;;;4939434;29;20074;-70
2023/12/10 02:39:24;;;;;;;23.45;12.88;;;;;;;;;;4938091;29;20042;-74
2023/12/10 02:41:50;;;;;;;25.70;12.00;;;;;;;;;;4933375;29;20039;-73
2023/12/10 02:44:15;;;;;;;19.95;12.07;;;;;;;;;;4938933;28;20089;-74
2023/12/10 02:46:44;;;;;;;20.38;11.43;;;;;;;;;;4935454;28;20178;-72
2023/12/10 02:49:10;;;;;;;15.93;12.00;;;;;;;;;;4937519;28;20039;-74
2023/12/10 02:51:36;;;;;;;29.17;14.30;;;;;;;;;;4940205;28;20045;-71
2023/12/10 02:54:01;;;;;;;17.63;12.95;;;;;;;;;;4941361;28;20067;-72
2023/12/10 02:56:27;;;;;;;23.73;13.82;;;;;;;;;;4935890;28;20045;-71
2023/12/10 02:58:53;;;;;;;29.33;15.15;;;;;;;;;;4936003;29;20043;-74
2023/12/10 03:01:18;;;;;;;33.33;15.60;;;;;;;;;;4940795;28;20532;-71
2023/12/10 03:03:44;;;;;;;15.88;13.20;;;;;;;;;;4940978;29;20100;-73
2023/12/10 03:06:10;;;;;;;24.15;14.48;;;;;;;;;;4940215;28;20593;-73
2023/12/10 03:08:36;;;;;;;16.17;12.95;;;;;;;;;;4932149;28;20035;-74
2023/12/10 03:11:03;;;;;;;32.35;14.73;;;;;;;;;;4940215;29;20196;-72
2023/12/10 03:13:28;;;;;;;14.43;12.88;;;;;;;;;;4940005;28;20580;-72
2023/12/10 03:15:54;;;;;;;21.23;13.10;;;;;;;;;;4937739;29;20062;-74
2023/12/10 03:18:19;;;;;;;16.15;11.93;;;;;;;;;;4936084;28;20516;-72
2023/12/10 03:20:45;;;;;;;17.60;12.90;;;;;;;;;;4939152;28;20543;-73
2023/12/10 03:23:11;;;;;;;15.88;13.50;;;;;;;;;;4941969;28;20042;-73
2023/12/10 03:25:36;;;;;;;14.07;12.90;;;;;;;;;;4940166;29;20397;-74
2023/12/10 03:28:02;;;;;;;14.88;12.88;;;;;;;;;;4937558;28;20043;-74
2023/12/10 03:30:27;;;;;;;14.40;12.98;;;;;;;;;;4939227;29;20050;-74
2023/12/10 03:32:53;;;;;;;13.45;12.23;;;;;;;;;;4939592;28;20043;-74
2023/12/10 03:35:19;;;;;;;13.70;12.55;;;;;;;;;;4943618;28;20059;-74
2023/12/10 03:37:44;;;;;;;13.82;12.45;;;;;;;;;;4937982;29;20049;-74
2023/12/10 03:40:10;;;;;;;13.50;12.23;;;;;;;;;;4941890;29;20502;-74
2023/12/10 03:42:36;;;;;;;17.45;12.35;;;;;;;;;;4936915;28;20046;-74
2023/12/10 03:45:02;;;;;;;13.38;12.02;;;;;;;;;;4937685;29;20027;-74
2023/12/10 03:47:27;;;;;;;18.83;12.20;;;;;;;;;;4941833;29;20035;-74
2023/12/10 03:49:53;;;;;;;15.02;12.38;;;;;;;;;;4935825;29;20042;-74
2023/12/10 03:52:18;;;;;;;15.85;11.77;;;;;;;;;;4938025;28;20039;-73
2023/12/10 03:54:44;;;;;;;19.05;12.20;;;;;;;;;;4939467;28;20230;-74
2023/12/10 03:57:10;;;;;;;19.73;13.57;;;;;;;;;;4924834;29;20035;-74
2023/12/10 03:59:35;;;;;;;20.85;13.48;;;;;;;;;;4937033;28;20437;-74
2023/12/10 04:02:01;;;;;;;20.35;12.30;;;;;;;;;;4934979;29;20035;-74
2023/12/10 04:04:26;;;;;;;20.50;13.10;;;;;;;;;;4938505;28;20031;-74
2023/12/10 04:06:52;;;;;;;23.38;13.15;;;;;;;;;;4939441;29;20031;-74
2023/12/10 04:09:17;;;;;;;20.90;12.85;;;;;;;;;;4937993;28;20485;-74
2023/12/10 04:11:43;;;;;;;13.93;12.52;;;;;;;;;;4937360;28;20060;-73
2023/12/10 04:14:09;;;;;;;20.00;12.90;;;;;;;;;;4923547;29;20122;-75
2023/12/10 04:16:36;;;;;;;20.17;13.63;;;;;;;;;;4937441;29;20027;-71
2023/12/10 04:19:02;;;;;;;20.95;12.10;;;;;;;;;;4938530;29;20122;-71
2023/12/10 04:21:27;;;;;;;14.30;13.02;;;;;;;;;;4935024;29;20039;-74
2023/12/10 04:23:53;;;;;;;18.98;13.63;;;;;;;;;;4918646;29;20054;-73
2023/12/10 04:26:19;;;;;;;17.38;13.52;;;;;;;;;;4926974;28;20070;-73
2023/12/10 04:28:45;;;;;;;13.95;12.20;;;;;;;;;;4940864;29;20039;-74
2023/12/10 04:31:10;;;;;;;14.50;12.00;;;;;;;;;;4936136;29;20039;-74
2023/12/10 04:33:36;;;;;;;13.68;12.07;;;;;;;;;;4940584;29;20057;-72
2023/12/10 04:36:03;;;;;;;13.70;11.98;;;;;;;;;;4940965;29;20055;-72
2023/12/10 04:38:29;;;;;;;14.40;11.43;;;;;;;;;;4940792;29;20035;-72
2023/12/10 04:40:55;;;;;;;16.58;12.05;;;;;;;;;;4934315;28;20094;-75
2023/12/10 04:43:20;;;;;;;17.40;11.48;;;;;;;;;;4937139;28;20039;-73
2023/12/10 04:45:46;;;;;;;13.48;12.13;;;;;;;;;;4937322;29;20489;-74
2023/12/10 04:48:15;;;;;;;19.55;11.45;;;;;;;;;;4939357;29;20032;-74
2023/12/10 04:50:41;;;;;;;19.92;11.75;;;;;;;;;;4939168;29;20226;-74
2023/12/10 04:53:07;;;;;;;16.27;12.77;;;;;;;;;;4919071;29;20574;-74
2023/12/10 04:55:33;;;;;;;14.98;12.73;;;;;;;;;;4940249;28;20034;-73
2023/12/10 04:57:59;;;;;;;17.90;13.18;;;;;;;;;;4934493;29;20038;-73
2023/12/10 05:00:25;;;;;;;20.48;12.45;;;;;;;;;;4941921;29;20039;-74
2023/12/10 05:02:51;;;;;;;15.57;11.85;;;;;;;;;;4936840;28;20043;-76
2023/12/10 05:05:17;;;;;;;20.08;11.50;;;;;;;;;;4936900;29;20094;-72
2023/12/10 05:07:43;;;;;;;19.15;12.50;;;;;;;;;;4942070;29;20582;-74
2023/12/10 05:10:09;;;;;;;20.23;11.70;;;;;;;;;;4932622;28;20035;-72
2023/12/10 05:12:35;;;;;;;19.42;11.82;;;;;;;;;;4937421;28;20135;-72
2023/12/10 05:15:00;;;;;;;16.50;12.70;;;;;;;;;;4939760;29;20063;-74
2023/12/10 05:17:26;;;;;;;16.63;11.88;;;;;;;;;;4938029;28;20406;-75
2023/12/10 05:19:52;;;;;;;14.32;12.00;;;;;;;;;;4936892;29;20506;-73
2023/12/10 05:22:19;;;;;;;15.93;12.82;;;;;;;;;;4936480;29;20117;-72
2023/12/10 05:24:45;;;;;;;13.73;12.07;;;;;;;;;;4940352;28;20050;-76
2023/12/10 05:27:11;;;;;;;15.73;11.38;;;;;;;;;;4934815;29;20039;-72
2023/12/10 05:29:36;;;;;;;13.73;11.82;;;;;;;;;;4925341;29;20034;-72
2023/12/10 05:32:02;;;;;;;12.85;11.60;;;;;;;;;;4931953;29;20599;-74
2023/12/10 05:34:28;;;;;;;21.27;13.35;;;;;;;;;;4937827;29;20031;-74
2023/12/10 05:36:54;;;;;;;14.93;11.48;;;;;;;;;;4940430;29;20054;-72
2023/12/10 05:39:19;;;;;;;14.32;12.77;;;;;;;;;;4937056;28;20178;-71
2023/12/10 05:41:45;;;;;;;18.00;12.00;;;;;;;;;;4941148;29;20089;-77
2023/12/10 05:44:11;;;;;;;18.38;12.75;;;;;;;;;;4937148;29;20031;-73
2023/12/10 05:46:36;;;;;;;17.58;12.70;;;;;;;;;;4924489;29;20039;-74
2023/12/10 05:49:03;;;;;;;13.50;12.38;;;;;;;;;;4924309;29;20038;-74
2023/12/10 05:51:29;;;;;;;13.90;12.30;;;;;;;;;;4937606;29;20078;-73
2023/12/10 05:53:54;;;;;;;14.02;12.40;;;;;;;;;;4936943;28;20118;-74
2023/12/10 05:56:20;;;;;;;16.38;12.65;;;;;;;;;;4939584;29;20039;-73
2023/12/10 05:58:45;;;;;;;16.40;12.52;;;;;;;;;;4940336;29;20046;-73
2023/12/10 06:01:11;;;;;;;14.45;12.30;;;;;;;;;;4935856;29;20039;-74
2023/12/10 06:03:37;;;;;;;21.48;12.55;;;;;;;;;;4921082;29;20086;-74
2023/12/10 06:06:02;;;;;;;18.60;12.73;;;;;;;;;;4935358;28;20067;-73
2023/12/10 06:08:28;;;;;;;16.33;12.88;;;;;;;;;;4938930;29;20042;-72
2023/12/10 06:10:54;;;;;;;18.08;13.77;;;;;;;;;;4938444;29;20521;-71
2023/12/10 06:13:20;;;;;;;21.58;13.35;;;;;;;;;;4921285;29;20031;-73
2023/12/10 06:15:46;;;;;;;18.23;12.55;;;;;;;;;;4924175;29;20070;-74
2023/12/10 06:18:11;;;;;;;19.58;12.52;;;;;;;;;;4937676;29;20126;-72
2023/12/10 06:20:37;;;;;;;15.05;12.73;;;;;;;;;;4935728;28;20114;-74
2023/12/10 06:23:03;;;;;;;13.40;12.20;;;;;;;;;;4938808;28;20109;-72
2023/12/10 06:25:28;;;;;;;13.75;11.35;;;;;;;;;;4943373;28;20122;-71
2023/12/10 06:27:56;;;;;;;16.55;12.45;;;;;;;;;;4941273;29;20039;-73
2023/12/10 06:30:22;;;;;;;16.40;13.27;;;;;;;;;;4940240;28;20043;-73
2023/12/10 06:32:48;;;;;;;16.65;11.90;;;;;;;;;;4939944;28;20035;-73
2023/12/10 06:35:14;;;;;;;17.13;12.48;;;;;;;;;;4942861;29;20035;-75
2023/12/10 06:37:40;;;;;;;14.52;11.77;;;;;;;;;;4939521;29;20035;-73
2023/12/10 06:40:07;;;;;;;17.50;11.57;;;;;;;;;;4938403;28;20894;-73
2023/12/10 06:42:34;;;;;;;16.67;11.45;;;;;;;;;;4940125;28;20059;-74
2023/12/10 06:45:00;;;;;;;22.33;12.00;;;;;;;;;;4939501;29;20476;-76
2023/12/10 06:47:25;;;;;;;12.43;11.23;;;;;;;;;;4942164;29;20059;-73
2023/12/10 06:49:51;;;;;;;19.23;13.18;;;;;;;;;;4939487;29;20066;-73
2023/12/10 06:52:17;;;;;;;15.85;12.82;;;;;;;;;;4939483;29;20050;-71
2023/12/10 06:54:43;;;;;;;13.27;11.98;;;;;;;;;;4939773;28;20041;-76
2023/12/10 06:57:09;;;;;;;13.93;11.60;;;;;;;;;;4924835;28;20720;-74
2023/12/10 06:59:35;;;;;;;15.60;12.10;;;;;;;;;;4943081;29;20047;-72
2023/12/10 07:02:01;;;;;;;15.27;11.55;;;;;;;;;;4935113;28;20039;-74
2023/12/10 07:04:26;;;;;;;12.82;11.52;;;;;;;;;;4940463;28;20386;-74
2023/12/10 07:06:52;;;;;;;13.82;11.73;;;;;;;;;;4939965;28;20072;-75
2023/12/10 07:09:17;;;;;;;14.95;12.15;;;;;;;;;;4938461;29;20047;-73
2023/12/10 07:11:43;;;;;;;13.80;12.70;;;;;;;;;;4942825;29;20063;-73
2023/12/10 07:14:09;;;;;;;16.77;11.27;;;;;;;;;;4938672;28;20054;-75
2023/12/10 07:16:34;;;;;;;13.40;12.02;;;;;;;;;;4939409;29;20074;-73
2023/12/10 07:19:00;;;;;;;12.82;11.60;;;;;;;;;;4937849;28;20106;-74
2023/12/10 07:21:25;;;;;;;12.75;11.23;;;;;;;;;;4943868;29;20039;-74
2023/12/10 07:23:51;;;;;;;16.02;11.73;;;;;;;;;;4938982;28;20078;-74
2023/12/10 07:26:26;;;;;;;18.98;12.35;;;;;;;;;;4941459;29;20071;-74
2023/12/10 07:28:52;;;;;;;14.40;11.18;;;;;;;;;;4935681;28;20043;-75
2023/12/10 07:31:18;;;;;;;12.68;11.38;;;;;;;;;;4935417;29;20043;-73
2023/12/10 07:33:44;;;;;;;12.68;11.27;;;;;;;;;;4938749;28;20035;-75
2023/12/10 07:36:10;;;;;;;12.90;11.25;;;;;;;;;;4934629;29;20039;-75
2023/12/10 07:38:36;;;;;;;18.98;12.30;;;;;;;;;;4938989;28;20405;-73
2023/12/10 07:41:02;;;;;;;17.45;12.55;;;;;;;;;;4936309;29;20031;-73
2023/12/10 07:43:27;;;;;;;20.42;12.48;;;;;;;;;;4935598;28;20637;-73
2023/12/10 07:45:53;;;;;;;15.95;12.18;;;;;;;;;;4920960;29;20038;-74
2023/12/10 07:48:20;;;;;;;18.85;11.77;;;;;;;;;;4937380;29;20886;-73
2023/12/10 07:50:45;;;;;;;17.90;12.05;;;;;;;;;;4936239;29;20035;-75
2023/12/10 07:53:11;;;;;;;16.95;11.77;;;;;;;;;;4923177;29;20027;-73
2023/12/10 07:55:37;;;;;;;17.48;11.45;;;;;;;;;;4936861;28;20055;-74
2023/12/10 07:58:02;;;;;;;15.80;13.02;;;;;;;;;;4927580;29;20065;-74
2023/12/10 08:00:28;;;;;;;15.55;12.57;;;;;;;;;;4941204;29;20668;-75
2023/12/10 08:02:55;;;;;;;19.23;11.75;;;;;;;;;;4937944;28;20111;-72
2023/12/10 08:05:21;;;;;;;12.63;11.43;;;;;;;;;;4937356;28;21602;-73
2023/12/10 08:07:47;;;;;;;16.05;11.77;;;;;;;;;;4915734;29;20078;-73
2023/12/10 08:10:13;;;;;;;16.15;12.32;;;;;;;;;;4932721;29;20062;-74
2023/12/10 08:12:38;;;;;;;17.65;12.18;;;;;;;;;;4939890;28;20038;-75
2023/12/10 08:15:05;;;;;;;12.65;11.45;;;;;;;;;;4935981;28;20047;-75
2023/12/10 08:17:30;;;;;;;16.23;12.13;;;;;;;;;;4942901;28;20876;-75
2023/12/10 08:19:56;;;;;;;15.07;12.32;;;;;;;;;;4935076;29;20043;-72
2023/12/10 08:22:21;;;;;;;13.77;11.65;;;;;;;;;;4944565;28;20242;-73
2023/12/10 08:24:47;;;;;;;12.73;11.43;;;;;;;;;;4935181;29;20043;-74
2023/12/10 08:27:13;;;;;;;16.38;11.32;;;;;;;;;;4938306;29;20035;-72
2023/12/10 08:29:38;;;;;;;13.27;11.90;;;;;;;;;;4940189;29;20118;-75
2023/12/10 08:32:04;;;;;;;18.08;12.23;;;;;;;;;;4936754;29;21195;-74
2023/12/10 08:34:30;;;;;;;13.73;12.30;;;;;;;;;;4941278;28;20027;-75
2023/12/10 08:36:56;;;;;;;12.80;11.55;;;;;;;;;;4939134;29;20039;-74
2023/12/10 08:39:21;;;;;;;13.02;11.68;;;;;;;;;;4937129;29;20035;-75
2023/12/10 08:41:47;;;;;;;14.20;11.77;;;;;;;;;;4935330;29;20047;-73
2023/12/10 08:44:13;;;;;;;12.88;11.50;;;;;;;;;;4933501;28;20945;-73
2023/12/10 08:46:38;;;;;;;13.18;11.77;;;;;;;;;;4937596;28;20078;-73
2023/12/10 08:49:04;;;;;;;12.20;11.18;;;;;;;;;;4933672;29;20397;-75
2023/12/10 08:51:30;;;;;;;12.27;11.20;;;;;;;;;;4939132;29;20055;-75
2023/12/10 08:53:55;;;;;;;13.98;11.75;;;;;;;;;;4938749;28;20031;-74
2023/12/10 08:56:21;;;;;;;15.55;12.25;;;;;;;;;;4934232;28;20138;-73
2023/12/10 08:58:47;;;;;;;12.23;11.23;;;;;;;;;;4937601;29;20050;-75
2023/12/10 09:01:12;;;;;;;14.75;12.30;;;;;;;;;;4932320;29;20039;-74
2023/12/10 09:03:42;;;;;;;16.85;11.93;;;;;;;;;;4932718;28;20058;-73
2023/12/10 09:06:08;;;;;;;20.17;11.60;;;;;;;;;;4938443;29;20071;-73
2023/12/10 09:08:34;;;;;;;15.35;11.95;;;;;;;;;;4938292;29;20086;-75
2023/12/10 09:11:03;;;;;;;13.25;12.00;;;;;;;;;;4937475;28;20047;-73
2023/12/10 09:13:30;;;;;;;;;;;;;;;;;;4937151;28;20058;-74
2023/12/10 09:15:55;;;;;;;14.13;13.00;;;;;;;;;;4939307;29;20559;-74
2023/12/10 09:18:21;;;;;;;12.68;11.73;;;;;;;;;;4937653;29;20602;-73
2023/12/10 09:20:47;;;;;;;11.90;10.95;;;;;;;;;;4935563;29;20048;-75
2023/12/10 09:23:12;;;;;;;13.70;11.88;;;;;;;;;;4933132;29;20038;-75
2023/12/10 09:25:38;;;;;;;12.57;11.25;;;;;;;;;;4933193;28;20449;-74
2023/12/10 09:28:03;;;;;;;13.27;11.95;;;;;;;;;;4934936;29;20066;-74
2023/12/10 09:30:29;;;;;;;17.70;11.77;;;;;;;;;;4937821;29;20421;-74
2023/12/10 09:32:54;;;;;;;19.38;11.63;;;;;;;;;;4934101;28;20090;-72
2023/12/10 09:35:20;;;;;;;14.98;12.05;;;;;;;;;;4935692;29;20050;-74
2023/12/10 09:37:46;;;;;;;13.77;12.25;;;;;;;;;;4919172;29;20035;-74
2023/12/10 09:40:12;;;;;;;16.02;13.02;;;;;;;;;;4929467;29;20111;-73
2023/12/10 09:42:37;;;;;;;16.38;12.77;;;;;;;;;;4933130;28;20043;-74
2023/12/10 09:45:03;;;;;;;13.65;11.68;;;;;;;;;;4937286;29;20036;-72
2023/12/10 09:47:29;;;;;;;13.25;12.10;;;;;;;;;;4933718;29;20442;-74
2023/12/10 09:49:58;;;;;;;13.18;11.57;;;;;;;;;;4937090;29;20074;-74
2023/12/10 09:52:24;;;;;;;;;;;;;;;;;;4931372;28;20063;-73
2023/12/10 09:54:52;;;;;;;15.43;11.98;;;;;;;;;;4935480;29;19961;-74
2023/12/10 09:57:19;;;;;;;16.23;12.23;;;;;;;;;;4932039;28;20517;-72
2023/12/10 09:59:44;;;;;;;17.85;11.88;;;;;;;;;;4933607;29;20761;-74
2023/12/10 10:02:10;;;;;;;15.65;12.32;;;;;;;;;;4933737;29;20051;-74
2023/12/10 10:04:40;;;;;;;12.73;11.63;;;;;;;;;;4934429;29;20230;-73
2023/12/10 10:07:06;;;;;;;;;;;;;;;;;;4932659;29;20031;-73
2023/12/10 10:09:38;;;;;;;12.77;11.68;;;;;;;;;;4931939;28;19918;-74
2023/12/10 10:12:05;;;;;;;14.27;11.45;;;;;;;;;;4935366;29;20042;-73
2023/12/10 10:14:31;;;;;;;18.42;11.75;;;;;;;;;;4932487;28;20039;-72
2023/12/10 10:16:57;;;;;;;12.07;10.88;;;;;;;;;;4936577;29;20047;-73
2023/12/10 10:19:22;;;;;;;12.20;10.77;;;;;;;;;;4937191;28;20046;-73
2023/12/10 10:21:48;;;;;;;12.73;11.55;;;;;;;;;;4937665;29;20042;-75
2023/12/10 10:24:13;;;;;;;12.27;11.05;;;;;;;;;;4932516;28;20066;-73
2023/12/10 10:26:39;;;;;;;14.52;10.80;;;;;;;;;;4935525;29;20034;-74
2023/12/10 10:29:06;;;;;;;14.25;11.25;;;;;;;;;;4920175;29;20138;-74
2023/12/10 10:31:33;;;;;;;13.73;11.52;;;;;;;;;;4934879;29;20042;-74
2023/12/10 10:34:02;;;;;;;12.77;11.20;;;;;;;;;;4934626;28;20035;-75
2023/12/10 10:36:28;;;;;;;;;;;;;;;;;;4933435;28;20042;-74
2023/12/10 10:38:55;;;;;;;16.70;11.68;;;;;;;;;;4933029;29;19914;-75
2023/12/10 10:41:22;;;;;;;13.27;11.75;;;;;;;;;;4925515;29;20050;-73
2023/12/10 10:43:48;;;;;;;12.70;11.50;;;;;;;;;;4926507;28;20063;-74
2023/12/10 10:46:20;;;;;;;14.38;11.93;;;;;;;;;;4934157;29;20114;-73
2023/12/10 10:48:51;;;;;;;13.00;11.80;;;;;;;;;;4927005;28;21344;-73
2023/12/10 10:51:31;;;;;;;12.48;11.48;;;;;;;;;;4929054;28;20146;-74
2023/12/10 10:53:58;;;;;;;13.05;11.98;;;;;;;;;;4927929;28;20058;-73
2023/12/10 10:56:25;;;;;;;13.68;12.32;;;;;;;;;;4933021;28;20046;-74
2023/12/10 10:58:51;;;;;;;14.10;12.10;;;;;;;;;;4931753;28;20035;-74
2023/12/10 11:01:38;;;;;;;13.65;12.20;;;;;;;;;;4931415;28;20039;-74
2023/12/10 11:04:04;;;;;;;12.52;11.43;;;;;;;;;;4921525;28;20043;-71
2023/12/10 11:06:30;;;;;;;14.73;13.00;;;;;;;;;;4901020;28;21477;-74
2023/12/10 11:08:59;;;;;;;17.05;11.93;;;;;;;;;;4933886;28;20071;-72
2023/12/10 11:11:26;;;;;;;12.65;11.40;;;;;;;;;;4938468;28;20050;-72
2023/12/10 11:13:53;;;;;;;12.32;11.18;;;;;;;;;;4942150;28;20039;-72
2023/12/10 11:16:21;;;;;;;12.25;10.98;;;;;;;;;;4931344;28;20043;-72
2023/12/10 11:18:55;;;;;;;13.27;11.45;;;;;;;;;;4939507;28;20211;-73
2023/12/10 11:21:21;;;;;;;14.98;11.02;;;;;;;;;;4935502;28;20035;-73
2023/12/10 11:23:47;;;;;;;12.68;11.38;;;;;;;;;;4943210;28;20038;-74
2023/12/10 11:26:13;;;;;;;12.35;11.18;;;;;;;;;;4933400;28;20041;-72
2023/12/10 11:28:42;;;;;;;14.05;11.85;;;;;;;;;;4935431;28;20373;-74
2023/12/10 11:31:08;;;;;;;14.27;11.83;;;;;;;;;;4943610;28;20042;-74
2023/12/10 11:33:38;;;;;;;13.57;11.30;;;;;;;;;;4936063;28;20074;-73
2023/12/10 11:36:09;;;;;;;14.98;11.20;;;;;;;;;;4938181;28;20039;-73
2023/12/10 11:38:36;;;;;;;13.95;12.48;;;;;;;;;;4922353;28;20046;-73
2023/12/10 11:41:03;;;;;;;13.82;11.80;;;;;;;;;;4939763;28;20042;-74
2023/12/10 11:43:29;;;;;;;16.23;12.07;;;;;;;;;;4922973;28;20054;-75
2023/12/10 11:45:55;;;;;;;16.08;12.25;;;;;;;;;;4934943;28;20034;-75
2023/12/10 11:48:21;;;;;;;18.17;12.18;;;;;;;;;;4941383;28;20046;-75
2023/12/10 11:50:49;;;;;;;12.82;11.68;;;;;;;;;;4939554;28;20035;-75
2023/12/10 11:53:17;;;;;;;14.05;12.40;;;;;;;;;;4933462;28;20521;-73
2023/12/10 11:55:44;;;;;;;16.17;11.55;;;;;;;;;;4938280;28;20047;-74
2023/12/10 11:58:09;;;;;;;19.40;11.82;;;;;;;;;;4943129;28;20159;-72
2023/12/10 12:00:35;;;;;;;12.85;11.60;;;;;;;;;;4937181;28;20130;-75
2023/12/10 12:03:06;;;;;;;15.18;11.52;;;;;;;;;;4924598;28;20035;-72
2023/12/10 12:05:32;;;;;;;13.52;11.65;;;;;;;;;;4937990;28;20046;-72
2023/12/10 12:07:59;;;;;;;17.77;12.07;;;;;;;;;;4940598;28;20031;-74
2023/12/10 12:10:35;;;;;;;13.80;12.27;;;;;;;;;;4938252;28;20101;-74
2023/12/10 12:13:01;;;;;;;15.02;12.05;;;;;;;;;;4922256;28;20047;-74
2023/12/10 12:15:27;;;;;;;13.27;11.80;;;;;;;;;;4938348;28;20087;-74
2023/12/10 12:17:53;;;;;;;15.88;11.75;;;;;;;;;;4940847;28;20043;-73
2023/12/10 12:20:25;;;;;;;13.95;11.88;;;;;;;;;;4935215;28;20050;-73
2023/12/10 12:22:51;;;;;;;14.13;11.10;;;;;;;;;;4939605;28;20043;-73
2023/12/10 12:25:18;;;;;;;17.00;11.55;;;;;;;;;;4938512;28;20054;-74
2023/12/10 12:27:44;;;;;;;11.88;10.77;;;;;;;;;;4938670;28;20035;-75
2023/12/10 12:30:10;;;;;;;12.20;11.30;;;;;;;;;;4938822;28;20043;-75
2023/12/10 12:32:36;;;;;;;12.90;11.55;;;;;;;;;;4938416;28;20030;-72
2023/12/10 12:35:02;;;;;;;12.25;10.90;;;;;;;;;;4937076;28;20436;-74
2023/12/10 12:37:28;;;;;;;14.60;11.18;;;;;;;;;;4919210;28;20050;-73
2023/12/10 12:39:55;;;;;;;12.45;11.35;;;;;;;;;;4935905;28;20031;-74
2023/12/10 12:42:24;;;;;;;12.23;10.82;;;;;;;;;;4934762;28;20090;-73
2023/12/10 12:44:50;;;;;;;13.52;11.05;;;;;;;;;;4938842;28;20034;-73
2023/12/10 12:47:16;;;;;;;14.70;11.40;;;;;;;;;;4936387;28;20046;-73
2023/12/10 12:49:42;;;;;;;12.07;10.75;;;;;;;;;;4939497;28;20063;-74
2023/12/10 12:52:08;;;;;;;11.55;10.57;;;;;;;;;;4935212;28;20544;-73
2023/12/10 12:54:34;;;;;;;12.60;10.52;;;;;;;;;;4939974;28;20032;-73
2023/12/10 12:57:00;;;;;;;14.45;10.68;;;;;;;;;;4939264;28;20042;-73
2023/12/10 12:59:26;;;;;;;11.27;10.57;;;;;;;;;;4934537;28;20031;-73
2023/12/10 13:01:51;;;;;;;11.48;10.45;;;;;;;;;;4938458;28;20122;-73
2023/12/10 13:04:17;;;;;;;12.35;10.10;;;;;;;;;;4937175;28;20070;-75
2023/12/10 13:06:43;;;;;;;11.40;10.30;;;;;;;;;;4937415;28;20035;-74
2023/12/10 13:09:10;;;;;;;11.25;10.15;;;;;;;;;;4938052;28;20589;-75
2023/12/10 13:11:36;;;;;;;11.63;10.52;;;;;;;;;;4947958;28;20042;-74
2023/12/10 13:14:03;;;;;;;11.10;10.13;;;;;;;;;;4935711;28;20090;-72
2023/12/10 13:16:30;;;;;;;12.82;11.20;;;;;;;;;;4933250;28;20528;-73
2023/12/10 13:18:56;;;;;;;10.95;10.15;;;;;;;;;;4936492;28;20071;-73
2023/12/10 13:21:22;;;;;;;12.52;11.00;;;;;;;;;;4936614;28;20118;-72
2023/12/10 13:23:48;;;;;;;12.68;11.32;;;;;;;;;;4938600;28;20573;-74
2023/12/10 13:26:14;;;;;;;12.82;11.00;;;;;;;;;;4941236;28;20042;-75
2023/12/10 13:28:40;;;;;;;12.18;10.93;;;;;;;;;;4939023;29;20517;-75
2023/12/10 13:31:06;;;;;;;12.32;10.85;;;;;;;;;;4937323;28;20962;-72
2023/12/10 13:33:31;;;;;;;11.80;10.68;;;;;;;;;;4933385;28;20074;-74
2023/12/10 13:35:57;;;;;;;11.43;10.30;;;;;;;;;;4939367;28;20384;-75
2023/12/10 13:38:23;;;;;;;11.93;10.70;;;;;;;;;;4939794;29;20043;-73
2023/12/10 13:40:48;;;;;;;12.02;10.75;;;;;;;;;;4902734;28;20510;-74
2023/12/10 13:43:14;;;;;;;11.98;10.73;;;;;;;;;;4935319;28;20043;-74
2023/12/10 13:45:42;;;;;;;13.82;11.27;;;;;;;;;;4933123;28;20034;-74
2023/12/10 13:48:07;;;;;;;11.25;10.35;;;;;;;;;;4936708;28;20038;-74
2023/12/10 13:50:33;;;;;;;11.23;10.18;;;;;;;;;;4918597;28;20471;-75
2023/12/10 13:52:59;;;;;;;13.32;10.70;;;;;;;;;;4932330;28;20042;-72
2023/12/10 13:55:26;;;;;;;13.27;10.35;;;;;;;;;;4937638;28;20046;-73
2023/12/10 13:57:52;;;;;;;13.68;11.35;;;;;;;;;;4938428;28;20123;-74
2023/12/10 14:00:18;;;;;;;13.55;10.70;;;;;;;;;;4922399;28;20126;-74
2023/12/10 14:02:44;;;;;;;11.68;10.68;;;;;;;;;;4934957;28;20386;-73
2023/12/10 14:05:11;;;;;;;12.00;10.70;;;;;;;;;;4938713;28;20471;-73
2023/12/10 14:07:37;;;;;;;12.18;10.90;;;;;;;;;;4937515;28;20122;-72
2023/12/10 14:10:04;;;;;;;11.45;10.43;;;;;;;;;;4925355;29;20130;-75
2023/12/10 14:12:30;;;;;;;13.65;11.65;;;;;;;;;;4933628;28;20098;-74